Terminal Aerodrome Forecast
Issued by NWS

Home | Current Version | Previous Version | Text Only | Print | Product List | Glossary On
Versions: 1 2 3 4 5 6 7 8 9 10 11 12 13 14 15 16 17 18 19 20 21 22 23 24
111
FTUS43 KFGF 121735 AAA
TAFDVL
TAF AMD
KDVL 121735Z 1218/1318 35009KT P6SM SKC
     FM130000 VRB03KT P6SM SKC
     FM130900 16004KT P6SM SCT250
     FM131600 15013KT P6SM BKN090=

USA.gov is the U.S. government's official web portal to all federal, state and local government web resources and services.